createdAt,value
2017-10-15T00:02:24.897Z,19.90
2017-10-15T00:04:53.035Z,25.73
2017-10-15T00:07:21.140Z,22.67
2017-10-15T00:09:49.244Z,17.10
2017-10-15T00:12:17.344Z,18.67
2017-10-15T00:14:45.436Z,21.23
2017-10-15T00:17:14.418Z,17.20
2017-10-15T00:19:42.496Z,15.87
2017-10-15T00:22:10.594Z,20.23
2017-10-15T00:24:38.700Z,15.90
2017-10-15T00:27:06.831Z,18.03
2017-10-15T00:29:35.720Z,15.87
2017-10-15T00:32:04.583Z,16.90
2017-10-15T00:34:32.671Z,13.10
2017-10-15T00:37:00.772Z,16.13
2017-10-15T00:39:28.868Z,14.40
2017-10-15T00:41:56.977Z,15.87
2017-10-15T00:44:25.079Z,16.20
2017-10-15T00:46:53.975Z,17.67
2017-10-15T00:49:22.925Z,19.07
2017-10-15T00:51:51.032Z,19.83
2017-10-15T00:54:19.900Z,29.60
2017-10-15T00:56:48.006Z,41.30
2017-10-15T00:59:16.852Z,27.30
2017-10-15T01:01:44.948Z,44.67
2017-10-15T01:04:13.028Z,38.13
2017-10-15T01:06:41.918Z,48.20
2017-10-15T01:09:10.782Z,45.07
2017-10-15T01:11:38.872Z,45.63
2017-10-15T01:14:06.982Z,38.53
2017-10-15T01:16:35.238Z,45.97
2017-10-15T01:19:04.111Z,25.37
2017-10-15T01:21:32.300Z,24.90
2017-10-15T01:24:01.189Z,31.10
2017-10-15T01:26:30.051Z,27.97
2017-10-15T01:28:58.166Z,17.10
2017-10-15T01:31:27.030Z,16.87
2017-10-15T01:33:55.336Z,14.63
2017-10-15T01:36:24.187Z,19.40
2017-10-15T01:38:52.292Z,17.37
2017-10-15T01:41:21.152Z,16.43
2017-10-15T01:43:49.264Z,14.83
2017-10-15T01:46:18.133Z,11.67
2017-10-15T01:48:46.236Z,12.90
2017-10-15T01:51:14.321Z,12.60
2017-10-15T01:53:42.420Z,13.13
2017-10-15T01:56:10.500Z,13.57
2017-10-15T01:58:38.587Z,16.07
2017-10-15T02:01:06.672Z,12.70
2017-10-15T02:03:34.824Z,15.73
2017-10-15T02:06:02.925Z,13.73
2017-10-15T02:08:31.803Z,15.03
2017-10-15T02:10:59.903Z,12.00
2017-10-15T02:13:28.763Z,12.80
2017-10-15T02:15:56.856Z,26.00
2017-10-15T02:18:25.740Z,12.93
2017-10-15T02:20:54.603Z,24.27
2017-10-15T02:23:22.700Z,19.37
2017-10-15T02:25:50.776Z,23.67
2017-10-15T02:28:18.863Z,36.83
2017-10-15T02:30:47.716Z,40.83
2017-10-15T02:33:15.920Z,28.70
2017-10-15T02:35:43.999Z,31.47
2017-10-15T02:38:12.856Z,29.40
2017-10-15T02:40:40.951Z,40.00
2017-10-15T02:43:09.183Z,28.87
2017-10-15T02:45:37.273Z,32.20
2017-10-15T02:48:05.370Z,23.47
2017-10-15T02:50:33.469Z,33.80
2017-10-15T02:53:01.584Z,42.63
2017-10-15T02:55:29.680Z,39.20
2017-10-15T02:57:57.781Z,98.80
2017-10-15T03:00:26.706Z,27.87
2017-10-15T03:02:54.812Z,41.07
2017-10-15T03:05:22.901Z,29.33
2017-10-15T03:07:50.988Z,24.73
2017-10-15T03:10:19.845Z,20.03
2017-10-15T03:12:47.945Z,20.17
2017-10-15T03:15:18.689Z,25.87
2017-10-15T03:17:47.564Z,15.60
2017-10-15T03:20:15.675Z,24.20
2017-10-15T03:22:44.175Z,15.90
2017-10-15T03:25:12.268Z,28.73
2017-10-15T03:27:40.351Z,13.87
2017-10-15T03:30:08.730Z,39.80
2017-10-15T03:32:37.616Z,18.83
2017-10-15T03:35:05.711Z,21.23
2017-10-15T03:37:33.812Z,17.70
2017-10-15T03:40:01.904Z,52.47
2017-10-15T03:42:29.991Z,43.67
2017-10-15T03:44:58.696Z,60.73
2017-10-15T03:47:26.787Z,38.37
2017-10-15T03:49:54.872Z,75.17
2017-10-15T03:52:23.745Z,100.17
2017-10-15T03:54:51.847Z,50.67
2017-10-15T03:57:20.687Z,45.40
2017-10-15T03:59:48.781Z,21.90
2017-10-15T04:02:16.866Z,43.70
2017-10-15T04:04:45.740Z,26.27
2017-10-15T04:07:13.824Z,30.13
2017-10-15T04:09:41.907Z,24.07
2017-10-15T04:12:10.767Z,27.63
2017-10-15T04:14:38.860Z,19.30
2017-10-15T04:17:06.957Z,24.27
2017-10-15T04:19:35.811Z,15.57
2017-10-15T04:22:03.907Z,32.37
2017-10-15T04:24:32.780Z,30.77
2017-10-15T04:27:00.867Z,16.27
2017-10-15T04:29:29.731Z,45.90
2017-10-15T04:31:57.823Z,64.07
2017-10-15T04:34:25.895Z,69.83
2017-10-15T04:36:53.989Z,34.47
2017-10-15T04:39:22.839Z,53.07
2017-10-15T04:41:50.918Z,73.97
2017-10-15T04:44:19.014Z,18.83
2017-10-15T04:46:47.860Z,20.50
2017-10-15T04:49:15.952Z,18.40
2017-10-15T04:51:44.036Z,22.27
2017-10-15T04:54:12.132Z,30.80
2017-10-15T04:56:40.988Z,28.70
2017-10-15T04:59:09.081Z,16.60
2017-10-15T05:01:37.162Z,18.20
2017-10-15T05:04:06.033Z,12.40
2017-10-15T05:06:34.111Z,13.17
2017-10-15T05:09:02.215Z,11.90
2017-10-15T05:11:30.325Z,11.80
2017-10-15T05:13:58.407Z,11.93
2017-10-15T05:16:26.500Z,12.93
2017-10-15T05:18:54.589Z,11.57
2017-10-15T05:21:23.443Z,12.27
2017-10-15T05:23:51.543Z,12.63
2017-10-15T05:26:19.626Z,13.67
2017-10-15T05:28:48.484Z,28.60
2017-10-15T05:31:16.568Z,30.33
2017-10-15T05:33:44.665Z,26.40
2017-10-15T05:36:13.515Z,26.80
2017-10-15T05:38:41.616Z,36.20
2017-10-15T05:41:09.695Z,41.20
2017-10-15T05:43:38.567Z,41.13
2017-10-15T05:46:06.652Z,27.90
2017-10-15T05:48:34.730Z,45.47
2017-10-15T05:51:02.809Z,53.10
2017-10-15T05:53:31.736Z,32.40
2017-10-15T05:55:59.821Z,31.23
2017-10-15T05:58:27.916Z,40.47
2017-10-15T06:00:55.992Z,27.80
2017-10-15T06:03:24.081Z,38.10
2017-10-15T06:05:52.159Z,23.50
2017-10-15T06:08:21.031Z,18.67
2017-10-15T06:10:49.115Z,14.53
2017-10-15T06:13:17.207Z,20.07
2017-10-15T06:15:45.304Z,15.50
2017-10-15T06:18:13.400Z,14.97
2017-10-15T06:20:41.489Z,15.10
2017-10-15T06:23:09.587Z,16.27
2017-10-15T06:25:38.443Z,12.17
2017-10-15T06:28:06.554Z,11.67
2017-10-15T06:30:35.407Z,13.37
2017-10-15T06:33:03.492Z,15.23
2017-10-15T06:35:31.588Z,13.27
2017-10-15T06:37:59.669Z,13.60
2017-10-15T06:40:28.523Z,11.47
2017-10-15T06:42:56.615Z,12.00
2017-10-15T06:45:24.704Z,15.53
2017-10-15T06:47:53.570Z,18.40
2017-10-15T06:50:21.660Z,21.37
2017-10-15T06:52:49.748Z,20.20
2017-10-15T06:55:20.562Z,15.10
2017-10-15T06:57:48.648Z,16.87
2017-10-15T07:00:17.941Z,14.70
2017-10-15T07:02:46.023Z,19.57
2017-10-15T07:05:14.876Z,16.67
2017-10-15T07:07:42.976Z,15.80
2017-10-15T07:10:11.062Z,21.93
2017-10-15T07:12:39.920Z,17.37
2017-10-15T07:15:08.015Z,29.40
2017-10-15T07:17:36.108Z,42.67
2017-10-15T07:20:04.972Z,29.10
2017-10-15T07:22:33.206Z,17.20
2017-10-15T07:25:01.312Z,20.17
2017-10-15T07:27:29.407Z,23.30
2017-10-15T07:29:58.288Z,14.83
2017-10-15T07:32:26.359Z,14.10
2017-10-15T07:34:54.451Z,11.63
2017-10-15T07:37:23.304Z,16.27
2017-10-15T07:39:51.409Z,23.37
2017-10-15T07:42:20.276Z,24.27
2017-10-15T07:44:48.377Z,30.53
2017-10-15T07:47:17.254Z,22.40
2017-10-15T07:49:45.343Z,16.93
2017-10-15T07:52:14.196Z,17.90
2017-10-15T07:54:42.303Z,28.43
2017-10-15T07:57:11.186Z,35.53
2017-10-15T07:59:40.048Z,24.90
2017-10-15T08:02:08.136Z,21.53
2017-10-15T08:04:36.219Z,21.53
2017-10-15T08:07:04.303Z,20.63
2017-10-15T08:09:33.180Z,22.80
2017-10-15T08:12:01.263Z,17.60
2017-10-15T08:14:30.136Z,21.20
2017-10-15T08:16:58.220Z,22.53
2017-10-15T08:19:26.311Z,22.60
2017-10-15T08:21:55.168Z,25.90
2017-10-15T08:24:23.668Z,23.17
2017-10-15T08:26:52.520Z,22.03
2017-10-15T08:29:20.629Z,20.37
2017-10-15T08:31:48.729Z,22.10
2017-10-15T08:34:16.841Z,23.03
2017-10-15T08:36:45.026Z,24.13
2017-10-15T08:39:13.129Z,26.50
2017-10-15T08:41:41.988Z,19.80
2017-10-15T08:44:10.092Z,18.83
2017-10-15T08:46:38.952Z,17.07
2017-10-15T08:49:07.049Z,17.87
2017-10-15T08:51:35.131Z,17.63
2017-10-15T08:54:03.994Z,18.67
2017-10-15T08:56:32.147Z,20.47
2017-10-15T08:59:00.243Z,18.50
2017-10-15T09:01:28.457Z,19.20
2017-10-15T09:03:56.615Z,24.67
2017-10-15T09:06:25.469Z,19.30
2017-10-15T09:08:53.565Z,19.93
2017-10-15T09:11:21.651Z,26.70
2017-10-15T09:13:50.529Z,20.87
2017-10-15T09:16:18.645Z,21.77
2017-10-15T09:18:46.751Z,25.53
2017-10-15T09:21:14.893Z,19.90
2017-10-15T09:23:42.998Z,20.90
2017-10-15T09:26:11.077Z,20.83
2017-10-15T09:28:39.168Z,20.80
2017-10-15T09:31:07.337Z,20.30
2017-10-15T09:33:35.429Z,20.13
2017-10-15T09:36:04.317Z,19.73
2017-10-15T09:38:32.396Z,19.33
2017-10-15T09:41:01.258Z,21.07
2017-10-15T09:43:29.336Z,26.37
2017-10-15T09:45:57.423Z,19.83
2017-10-15T09:48:25.517Z,19.60
2017-10-15T09:50:54.380Z,19.60
2017-10-15T09:53:22.464Z,17.67
2017-10-15T09:55:50.550Z,17.73
2017-10-15T09:58:19.398Z,17.43
2017-10-15T10:00:47.488Z,20.00
2017-10-15T10:03:15.564Z,18.83
2017-10-15T10:05:43.644Z,19.80
2017-10-15T10:08:11.744Z,21.20
2017-10-15T10:10:39.877Z,18.60
2017-10-15T10:13:07.947Z,18.30
2017-10-15T10:15:36.039Z,16.70
2017-10-15T10:18:04.333Z,16.90
2017-10-15T10:20:33.191Z,25.13
2017-10-15T10:23:02.635Z,20.73
2017-10-15T10:25:30.728Z,18.30
2017-10-15T10:27:58.809Z,18.13
2017-10-15T10:30:26.895Z,17.63
2017-10-15T10:32:54.987Z,18.13
2017-10-15T10:35:23.056Z,19.03
2017-10-15T10:37:51.139Z,21.70
2017-10-15T10:40:19.224Z,16.10
2017-10-15T10:42:48.069Z,23.13
2017-10-15T10:45:16.925Z,21.13
2017-10-15T10:47:45.005Z,15.90
2017-10-15T10:50:13.091Z,14.13
2017-10-15T10:52:41.167Z,16.23
2017-10-15T10:55:09.248Z,14.50
2017-10-15T10:57:38.079Z,25.40
2017-10-15T11:00:06.172Z,16.13
2017-10-15T11:02:35.020Z,28.17
2017-10-15T11:05:03.195Z,27.07
2017-10-15T11:07:31.273Z,13.37
2017-10-15T11:09:59.361Z,13.20
2017-10-15T11:12:27.440Z,14.40
2017-10-15T11:14:56.319Z,12.47
2017-10-15T11:17:24.396Z,14.87
2017-10-15T11:19:52.551Z,14.20
2017-10-15T11:22:20.634Z,13.07
2017-10-15T11:24:48.767Z,15.10
2017-10-15T11:27:17.630Z,13.27
2017-10-15T11:29:46.490Z,10.23
2017-10-15T11:32:14.592Z,11.23
2017-10-15T11:34:43.446Z,29.43
2017-10-15T11:37:11.548Z,12.57
2017-10-15T11:39:40.409Z,10.37
2017-10-15T11:42:08.496Z,18.47
2017-10-15T11:44:36.564Z,10.43
2017-10-15T11:47:04.652Z,22.47
2017-10-15T11:49:33.516Z,16.17
2017-10-15T11:52:01.592Z,10.60
2017-10-15T11:54:29.676Z,12.00
2017-10-15T11:56:57.760Z,15.33
2017-10-15T11:59:25.840Z,9.23
2017-10-15T12:01:54.683Z,8.97
2017-10-15T12:04:22.772Z,9.73
2017-10-15T12:06:50.849Z,9.43
2017-10-15T12:09:18.932Z,8.00
2017-10-15T12:11:47.020Z,11.23
2017-10-15T12:14:15.859Z,7.87
2017-10-15T12:16:43.939Z,6.93
2017-10-15T12:19:12.027Z,11.57
2017-10-15T12:21:40.118Z,6.60
2017-10-15T12:24:08.211Z,7.17
2017-10-15T12:26:37.069Z,6.90
2017-10-15T12:29:05.156Z,19.07
2017-10-15T12:31:34.026Z,7.57
2017-10-15T12:34:02.114Z,7.83
2017-10-15T12:36:30.999Z,6.87
2017-10-15T12:38:59.075Z,5.80
2017-10-15T12:41:27.171Z,7.90
2017-10-15T12:43:56.097Z,7.00
2017-10-15T12:46:24.195Z,4.93
2017-10-15T12:48:52.279Z,6.97
2017-10-15T12:51:20.366Z,5.90
2017-10-15T12:53:48.442Z,6.20
2017-10-15T12:56:17.464Z,7.67
2017-10-15T12:58:45.552Z,6.57
2017-10-15T13:01:13.644Z,5.67
2017-10-15T13:03:41.737Z,5.70
2017-10-15T13:06:09.823Z,5.23
2017-10-15T13:08:38.699Z,5.77
2017-10-15T13:11:06.800Z,4.93
2017-10-15T13:13:35.649Z,4.57
2017-10-15T13:16:03.755Z,8.03
2017-10-15T13:18:32.626Z,5.20
2017-10-15T13:21:00.731Z,3.77
2017-10-15T13:23:29.580Z,4.17
2017-10-15T13:25:57.680Z,6.57
2017-10-15T13:28:25.753Z,4.53
2017-10-15T13:30:54.626Z,5.83
2017-10-15T13:33:22.726Z,5.00
2017-10-15T13:35:51.602Z,5.63
2017-10-15T13:38:19.687Z,4.83
2017-10-15T13:40:48.549Z,5.60
2017-10-15T13:43:16.625Z,5.90
2017-10-15T13:45:44.734Z,7.27
2017-10-15T13:48:13.580Z,5.60
2017-10-15T13:50:41.676Z,4.40
2017-10-15T13:53:10.535Z,4.60
2017-10-15T13:55:39.633Z,4.20
2017-10-15T13:58:07.738Z,4.60
2017-10-15T14:00:36.605Z,5.47
2017-10-15T14:03:04.743Z,4.30
2017-10-15T14:05:32.971Z,4.03
2017-10-15T14:08:01.867Z,3.90
2017-10-15T14:10:30.053Z,4.33
2017-10-15T14:12:58.944Z,4.53
2017-10-15T14:15:27.822Z,4.53
2017-10-15T14:17:55.964Z,5.10
2017-10-15T14:20:24.134Z,5.83
2017-10-15T14:22:52.299Z,4.50
2017-10-15T14:25:20.441Z,5.70
2017-10-15T14:27:48.578Z,5.47
2017-10-15T14:30:16.732Z,4.80
2017-10-15T14:32:44.851Z,7.70
2017-10-15T14:35:13.031Z,10.57
2017-10-15T14:37:41.923Z,4.10
2017-10-15T14:40:10.819Z,6.20
2017-10-15T14:42:39.743Z,5.83
2017-10-15T14:45:07.870Z,5.50
2017-10-15T14:47:36.802Z,5.47
2017-10-15T14:50:04.935Z,5.63
2017-10-15T14:52:33.883Z,6.87
2017-10-15T14:55:02.014Z,4.93
2017-10-15T14:57:30.939Z,4.97
2017-10-15T14:59:59.076Z,6.03
2017-10-15T15:02:27.194Z,6.93
2017-10-15T15:04:55.289Z,4.57
2017-10-15T15:07:23.399Z,6.10
2017-10-15T15:09:52.297Z,5.63
2017-10-15T15:12:21.184Z,5.00
2017-10-15T15:14:49.286Z,4.70
2017-10-15T15:17:17.443Z,8.27
2017-10-15T15:19:45.618Z,5.77
2017-10-15T15:22:13.757Z,5.77
2017-10-15T15:24:41.862Z,5.50
2017-10-15T15:27:10.822Z,9.03
2017-10-15T15:29:38.960Z,5.23
2017-10-15T15:32:07.131Z,6.17
2017-10-15T15:34:35.244Z,6.10
2017-10-15T15:37:03.348Z,4.90
2017-10-15T15:39:32.240Z,4.80
2017-10-15T15:42:00.373Z,4.40
2017-10-15T15:44:29.325Z,5.57
2017-10-15T15:46:57.466Z,5.53
2017-10-15T15:49:26.357Z,7.10
2017-10-15T15:51:54.519Z,4.77
2017-10-15T15:54:22.634Z,4.83
2017-10-15T15:56:50.789Z,5.43
2017-10-15T15:59:19.674Z,5.47
2017-10-15T16:01:48.601Z,5.57
2017-10-15T16:04:17.963Z,6.43
2017-10-15T16:06:46.098Z,5.50
2017-10-15T16:09:14.239Z,7.23
2017-10-15T16:11:42.429Z,5.37
2017-10-15T16:14:11.327Z,7.77
2017-10-15T16:16:39.437Z,8.90
2017-10-15T16:19:17.576Z,7.57
2017-10-15T16:21:45.716Z,7.70
2017-10-15T16:24:13.833Z,7.57
2017-10-15T16:26:41.996Z,8.47
2017-10-15T16:29:11.004Z,9.57
2017-10-15T16:31:39.162Z,6.53
2017-10-15T16:34:16.749Z,7.10
2017-10-15T16:36:44.875Z,9.37
2017-10-15T16:39:12.992Z,8.03
2017-10-15T16:41:42.693Z,10.83
2017-10-15T16:44:10.795Z,8.50
2017-10-15T16:46:39.663Z,10.33
2017-10-15T16:49:07.741Z,12.00
2017-10-15T16:51:35.835Z,10.10
2017-10-15T16:54:04.673Z,9.13
2017-10-15T16:56:32.835Z,9.33
2017-10-15T16:59:00.950Z,12.40
2017-10-15T17:01:29.054Z,22.83
2017-10-15T17:03:57.893Z,26.27
2017-10-15T17:06:25.987Z,14.03
2017-10-15T17:08:54.874Z,17.60
2017-10-15T17:11:22.966Z,14.67
2017-10-15T17:13:51.811Z,12.20
2017-10-15T17:16:19.933Z,13.00
2017-10-15T17:18:48.799Z,12.17
2017-10-15T17:21:16.890Z,13.90
2017-10-15T17:23:45.766Z,14.00
2017-10-15T17:26:13.865Z,15.10
2017-10-15T17:28:42.728Z,19.93
2017-10-15T17:31:10.820Z,16.10
2017-10-15T17:33:39.720Z,13.40
2017-10-15T17:36:08.562Z,12.37
2017-10-15T17:38:36.657Z,14.40
2017-10-15T17:41:04.732Z,10.20
2017-10-15T17:43:32.816Z,10.90
2017-10-15T17:46:01.678Z,12.20
2017-10-15T17:48:37.129Z,9.73
2017-10-15T17:51:06.346Z,10.40
2017-10-15T17:53:35.205Z,12.97
2017-10-15T17:56:03.281Z,13.90
2017-10-15T17:58:31.368Z,13.57
2017-10-15T18:00:59.440Z,16.63
2017-10-15T18:03:27.524Z,17.00
2017-10-15T18:05:55.595Z,17.17
2017-10-15T18:08:24.461Z,12.93
2017-10-15T18:10:52.640Z,17.43
2017-10-15T18:13:20.737Z,13.27
2017-10-15T18:15:48.816Z,17.00
2017-10-15T18:18:17.678Z,16.07
2017-10-15T18:20:45.761Z,12.87
2017-10-15T18:23:13.873Z,12.53
2017-10-15T18:25:41.992Z,11.93
2017-10-15T18:28:10.094Z,12.17
2017-10-15T18:30:38.182Z,13.07
2017-10-15T18:33:07.044Z,14.03
2017-10-15T18:35:35.129Z,14.37
2017-10-15T18:38:03.231Z,12.57
2017-10-15T18:40:32.088Z,18.50
2017-10-15T18:43:00.184Z,17.50
2017-10-15T18:45:29.044Z,13.40
2017-10-15T18:47:57.154Z,18.73
2017-10-15T18:50:25.316Z,14.43
2017-10-15T18:52:55.506Z,14.60
2017-10-15T18:55:23.612Z,14.63
2017-10-15T18:57:52.490Z,13.63
2017-10-15T19:00:20.578Z,12.23
2017-10-15T19:02:49.440Z,14.37
2017-10-15T19:05:17.536Z,13.03
2017-10-15T19:07:46.406Z,15.87
2017-10-15T19:10:14.636Z,12.23
2017-10-15T19:12:42.747Z,12.70
2017-10-15T19:15:10.859Z,12.90
2017-10-15T19:17:38.989Z,12.90
2017-10-15T19:20:07.082Z,18.23
2017-10-15T19:22:35.180Z,13.20
2017-10-15T19:25:03.278Z,15.33
2017-10-15T19:27:31.406Z,20.30
2017-10-15T19:29:59.522Z,16.53
2017-10-15T19:32:27.621Z,19.17
2017-10-15T19:34:55.741Z,18.13
2017-10-15T19:37:23.849Z,18.00
2017-10-15T19:39:51.978Z,20.70
2017-10-15T19:42:20.845Z,18.90
2017-10-15T19:44:48.965Z,18.20
2017-10-15T19:47:17.074Z,16.87
2017-10-15T19:49:45.188Z,16.33
2017-10-15T19:52:13.308Z,15.93
2017-10-15T19:54:41.417Z,17.67
2017-10-15T19:57:09.518Z,19.90
2017-10-15T19:59:38.396Z,15.60
2017-10-15T20:02:06.472Z,19.10
2017-10-15T20:04:35.348Z,19.90
2017-10-15T20:07:03.425Z,17.13
2017-10-15T20:09:31.517Z,51.87
2017-10-15T20:12:00.390Z,27.47
2017-10-15T20:14:28.508Z,28.13
2017-10-15T20:16:56.613Z,19.77
2017-10-15T20:19:24.731Z,15.13
2017-10-15T20:21:52.842Z,14.23
2017-10-15T20:24:20.974Z,18.00
2017-10-15T20:26:49.850Z,24.90
2017-10-15T20:29:18.744Z,24.50
2017-10-15T20:31:47.628Z,29.20
2017-10-15T20:34:15.724Z,23.10
2017-10-15T20:36:44.580Z,26.10
2017-10-15T20:39:12.673Z,22.17
2017-10-15T20:41:40.756Z,19.80
2017-10-15T20:44:09.617Z,18.73
2017-10-15T20:46:37.707Z,19.10
2017-10-15T20:49:06.591Z,17.10
2017-10-15T20:51:34.678Z,16.30
2017-10-15T20:54:03.538Z,15.23
2017-10-15T20:56:31.619Z,15.77
2017-10-15T20:58:59.704Z,13.73
2017-10-15T21:01:28.669Z,14.07
2017-10-15T21:03:56.770Z,13.73
2017-10-15T21:06:24.868Z,64.80
2017-10-15T21:08:53.830Z,31.57
2017-10-15T21:11:21.920Z,34.00
2017-10-15T21:13:50.800Z,16.70
2017-10-15T21:16:18.883Z,16.63
2017-10-15T21:18:47.746Z,15.13
2017-10-15T21:21:15.844Z,16.80
2017-10-15T21:23:44.705Z,18.60
2017-10-15T21:26:12.800Z,15.10
2017-10-15T21:28:40.977Z,18.20
2017-10-15T21:31:09.083Z,17.67
2017-10-15T21:33:37.948Z,16.43
2017-10-15T21:36:06.812Z,17.10
2017-10-15T21:38:34.906Z,16.80
2017-10-15T21:41:03.012Z,17.23
2017-10-15T21:43:31.112Z,16.13
2017-10-15T21:46:00.054Z,18.13
2017-10-15T21:48:28.147Z,17.30
2017-10-15T21:50:56.240Z,14.20
2017-10-15T21:53:24.328Z,18.03
2017-10-15T21:55:52.434Z,16.77
2017-10-15T21:58:20.551Z,14.93
2017-10-15T22:00:48.631Z,17.17
2017-10-15T22:03:16.810Z,15.33
2017-10-15T22:05:44.893Z,17.50
2017-10-15T22:08:13.004Z,19.13
2017-10-15T22:10:41.889Z,13.27
2017-10-15T22:13:09.991Z,13.07
2017-10-15T22:15:38.874Z,14.50
2017-10-15T22:18:07.745Z,16.13
2017-10-15T22:20:41.416Z,15.90
2017-10-15T22:23:09.512Z,16.30
2017-10-15T22:25:37.622Z,17.53
2017-10-15T22:28:06.607Z,16.50
2017-10-15T22:30:35.479Z,16.77
2017-10-15T22:33:03.562Z,16.90
2017-10-15T22:35:32.436Z,15.63
2017-10-15T22:38:00.526Z,16.90
2017-10-15T22:40:29.381Z,18.90
2017-10-15T22:42:57.476Z,16.80
2017-10-15T22:45:25.578Z,20.23
2017-10-15T22:47:53.680Z,17.20
2017-10-15T22:50:22.544Z,18.73
2017-10-15T22:52:51.408Z,17.67
2017-10-15T22:55:19.508Z,19.07
2017-10-15T22:57:48.377Z,16.03
2017-10-15T23:00:16.477Z,17.43
2017-10-15T23:02:45.329Z,18.30
2017-10-15T23:05:13.437Z,23.73
2017-10-15T23:07:42.305Z,22.17
2017-10-15T23:10:11.197Z,23.03
2017-10-15T23:12:40.068Z,18.70
2017-10-15T23:15:08.184Z,19.80
2017-10-15T23:17:37.040Z,22.60
2017-10-15T23:20:05.147Z,21.43
2017-10-15T23:22:34.013Z,17.37
2017-10-15T23:25:02.115Z,18.70
2017-10-15T23:27:30.245Z,18.80
2017-10-15T23:29:58.357Z,19.67
2017-10-15T23:32:27.217Z,19.57
2017-10-15T23:34:55.311Z,19.20
2017-10-15T23:37:24.175Z,20.60
2017-10-15T23:39:52.274Z,19.60
2017-10-15T23:42:21.359Z,30.57
2017-10-15T23:44:49.466Z,23.00
2017-10-15T23:47:17.563Z,23.90
2017-10-15T23:49:45.676Z,20.80
2017-10-15T23:52:13.770Z,19.20
2017-10-15T23:54:42.634Z,22.57
2017-10-15T23:57:10.721Z,20.70
2017-10-15T23:59:39.581Z,18.20
